createdAt,value
2016-12-26T00:00:46.818Z,47.11
2016-12-26T00:01:47.152Z,46.34
2016-12-26T00:02:47.181Z,46.44
2016-12-26T00:03:46.925Z,46.53
2016-12-26T00:04:46.896Z,46.53
2016-12-26T00:05:47.233Z,46.25
2016-12-26T00:06:46.933Z,46.44
2016-12-26T00:07:47.270Z,46.15
2016-12-26T00:08:47.028Z,45.77
2016-12-26T00:09:47.311Z,46.06
2016-12-26T00:10:47.013Z,45.48
2016-12-26T00:11:47.351Z,45.1
2016-12-26T00:12:47.372Z,45.41
2016-12-26T00:13:47.088Z,45.48
2016-12-26T00:14:47.417Z,45.22
2016-12-26T00:15:47.116Z,44.72
2016-12-26T00:16:47.134Z,44.72
2016-12-26T00:17:47.152Z,45.01
2016-12-26T00:18:47.539Z,44.62
2016-12-26T00:19:47.519Z,44.34
2016-12-26T00:20:47.526Z,44.26
2016-12-26T00:21:47.233Z,43.66
2016-12-26T00:22:47.567Z,43.57
2016-12-26T00:23:47.274Z,43.79
2016-12-26T00:24:47.290Z,43.69
2016-12-26T00:25:47.312Z,43.59
2016-12-26T00:26:47.330Z,43.5
2016-12-26T00:27:47.364Z,43.21
2016-12-26T00:28:47.432Z,43.12
2016-12-26T00:29:47.391Z,43.38
2016-12-26T00:30:47.738Z,43.38
2016-12-26T00:31:47.429Z,43.57
2016-12-26T00:32:47.768Z,42.81
2016-12-26T00:33:47.497Z,42.71
2016-12-26T00:34:47.491Z,42.43
2016-12-26T00:35:47.824Z,42.07
2016-12-26T00:36:47.851Z,42.43
2016-12-26T00:37:47.549Z,42.07
2016-12-26T00:38:47.895Z,41.95
2016-12-26T00:39:47.905Z,42.44
2016-12-26T00:40:47.608Z,42.07
2016-12-26T00:41:47.632Z,42.35
2016-12-26T00:42:47.649Z,41.68
2016-12-26T00:43:47.668Z,41.2
2016-12-26T00:44:48.005Z,41.39
2016-12-26T00:45:47.707Z,41.78
2016-12-26T00:46:48.044Z,41.78
2016-12-26T00:47:47.747Z,41.75
2016-12-26T00:48:48.084Z,41.66
2016-12-26T00:49:48.104Z,42.73
2016-12-26T00:50:48.123Z,42.81
2016-12-26T00:51:47.825Z,42.16
2016-12-26T00:52:48.163Z,42.35
2016-12-26T00:53:48.180Z,41.49
2016-12-26T00:54:48.202Z,41.68
2016-12-26T00:55:47.906Z,41.68
2016-12-26T00:56:48.241Z,41.2
2016-12-26T00:57:48.262Z,41.47
2016-12-26T00:58:47.964Z,41.49
2016-12-26T00:59:47.989Z,41.87
2016-12-26T01:00:48.002Z,41.66
2016-12-26T01:01:48.348Z,42.07
2016-12-26T01:02:48.043Z,41.3
2016-12-26T01:03:48.064Z,41.49
2016-12-26T01:04:48.085Z,41.39
2016-12-26T01:05:48.104Z,41.58
2016-12-26T01:06:48.440Z,41.11
2016-12-26T01:07:48.146Z,41.2
2016-12-26T01:08:48.165Z,41.11
2016-12-26T01:09:48.183Z,41.39
2016-12-26T01:10:48.206Z,41.3
2016-12-26T01:11:48.539Z,41.39
2016-12-26T01:12:48.557Z,41.87
2016-12-26T01:13:48.582Z,41.49
2016-12-26T01:14:48.283Z,41.2
2016-12-26T01:15:48.618Z,41.2
2016-12-26T01:16:48.636Z,41.2
2016-12-26T01:17:48.342Z,41.11
2016-12-26T01:18:48.681Z,41.2
2016-12-26T01:19:48.697Z,41.3
2016-12-26T01:20:48.402Z,41.49
2016-12-26T01:21:48.440Z,41.68
2016-12-26T01:22:48.469Z,41.78
2016-12-26T01:23:48.463Z,41.68
2016-12-26T01:24:48.481Z,41.2
2016-12-26T01:25:48.819Z,41.39
2016-12-26T01:26:48.519Z,41.2
2016-12-26T01:27:48.868Z,41.49
2016-12-26T01:28:48.879Z,41.3
2016-12-26T01:29:48.897Z,41.2
2016-12-26T01:30:48.918Z,41.2
2016-12-26T01:31:48.620Z,41.49
2016-12-26T01:32:48.673Z,41.49
2016-12-26T01:33:48.979Z,41.2
2016-12-26T01:34:48.681Z,41.2
2016-12-26T01:35:48.711Z,41.39
2016-12-26T01:36:49.036Z,41.49
2016-12-26T01:37:48.739Z,41.58
2016-12-26T01:38:48.763Z,41.87
2016-12-26T01:39:49.098Z,42.07
2016-12-26T01:40:48.800Z,42.07
2016-12-26T01:41:49.137Z,42.44
2016-12-26T01:42:49.156Z,41.97
2016-12-26T01:43:48.862Z,41.2
2016-12-26T01:44:48.880Z,41.49
2016-12-26T01:45:49.215Z,41.97
2016-12-26T01:46:48.918Z,41.01
2016-12-26T01:47:49.256Z,41.11
2016-12-26T01:48:48.973Z,41.01
2016-12-26T01:49:49.294Z,41.39
2016-12-26T01:50:49.324Z,41.97
2016-12-26T01:51:49.025Z,41.58
2016-12-26T01:52:49.038Z,42.44
2016-12-26T01:53:49.060Z,42.16
2016-12-26T01:54:49.393Z,42.35
2016-12-26T01:55:49.416Z,42.25
2016-12-26T01:56:49.121Z,42.44
2016-12-26T01:57:49.457Z,42.44
2016-12-26T01:58:49.162Z,42.16
2016-12-26T01:59:49.191Z,42.16
2016-12-26T02:00:49.201Z,42.54
2016-12-26T02:01:49.219Z,42.44
2016-12-26T02:02:49.588Z,42.44
2016-12-26T02:03:49.258Z,42.64
2016-12-26T02:04:49.599Z,42.16
2016-12-26T02:05:49.617Z,42.44
2016-12-26T02:06:49.321Z,42.16
2016-12-26T02:07:49.655Z,42.35
2016-12-26T02:08:49.678Z,42.25
2016-12-26T02:09:49.380Z,42.35
2016-12-26T02:10:49.402Z,42.44
2016-12-26T02:11:49.419Z,42.35
2016-12-26T02:12:49.444Z,42.25
2016-12-26T02:13:49.460Z,42.93
2016-12-26T02:14:49.796Z,42.35
2016-12-26T02:15:49.501Z,42.35
2016-12-26T02:16:49.521Z,42.35
2016-12-26T02:17:49.856Z,42.93
2016-12-26T02:18:49.876Z,42.16
2016-12-26T02:19:49.585Z,42.35
2016-12-26T02:20:49.618Z,42.16
2016-12-26T02:21:49.630Z,42.07
2016-12-26T02:22:49.956Z,42.35
2016-12-26T02:23:49.983Z,42.25
2016-12-26T02:24:49.679Z,42.35
2016-12-26T02:25:50.018Z,42.25
2016-12-26T02:26:50.034Z,42.35
2016-12-26T02:27:50.057Z,42.64
2016-12-26T02:28:50.094Z,42.07
2016-12-26T02:29:50.098Z,42.25
2016-12-26T02:30:49.828Z,42.16
2016-12-26T02:31:50.152Z,42.16
2016-12-26T02:32:50.157Z,42.16
2016-12-26T02:33:49.861Z,42.07
2016-12-26T02:34:50.201Z,42.07
2016-12-26T02:35:50.216Z,41.97
2016-12-26T02:36:50.234Z,42.25
2016-12-26T02:37:49.940Z,42.93
2016-12-26T02:38:50.278Z,42.83
2016-12-26T02:39:50.319Z,42.25
2016-12-26T02:40:50.008Z,42.83
2016-12-26T02:41:50.020Z,42.64
2016-12-26T02:42:50.358Z,42.25
2016-12-26T02:43:50.384Z,42.73
2016-12-26T02:44:50.396Z,42.44
2016-12-26T02:45:50.102Z,42.44
2016-12-26T02:46:50.437Z,42.64
2016-12-26T02:47:50.456Z,43.21
2016-12-26T02:48:50.475Z,42.73
2016-12-26T02:49:50.494Z,42.64
2016-12-26T02:50:50.519Z,42.73
2016-12-26T02:51:50.223Z,42.54
2016-12-26T02:52:50.243Z,42.83
2016-12-26T02:53:50.260Z,42.73
2016-12-26T02:54:50.283Z,42.73
2016-12-26T02:55:50.617Z,42.66
2016-12-26T02:56:50.321Z,42.73
2016-12-26T02:57:50.340Z,43.59
2016-12-26T02:58:50.678Z,43.21
2016-12-26T02:59:50.697Z,43.79
2016-12-26T03:00:50.401Z,43.69
2016-12-26T03:01:50.419Z,43.4
2016-12-26T03:02:50.761Z,43.33
2016-12-26T03:03:50.462Z,43.21
2016-12-26T03:04:50.799Z,43.59
2016-12-26T03:05:50.502Z,43.88
2016-12-26T03:06:50.523Z,43.69
2016-12-26T03:07:50.861Z,43.33
2016-12-26T03:08:50.565Z,43.5
2016-12-26T03:09:50.896Z,43.5
2016-12-26T03:10:50.926Z,43.5
2016-12-26T03:11:50.624Z,43.21
2016-12-26T03:12:50.644Z,43.69
2016-12-26T03:13:50.998Z,43.5
2016-12-26T03:14:51.002Z,44.17
2016-12-26T03:15:51.023Z,43.59
2016-12-26T03:16:50.723Z,43.88
2016-12-26T03:17:50.745Z,43.88
2016-12-26T03:18:50.764Z,43.98
2016-12-26T03:19:51.099Z,44.17
2016-12-26T03:20:50.883Z,43.98
2016-12-26T03:21:51.155Z,44.26
2016-12-26T03:22:50.852Z,44.17
2016-12-26T03:23:50.867Z,43.98
2016-12-26T03:24:50.884Z,44.19
2016-12-26T03:25:51.220Z,43.79
2016-12-26T03:26:50.926Z,44.19
2016-12-26T03:27:50.945Z,44.36
2016-12-26T03:28:50.966Z,44.36
2016-12-26T03:29:50.986Z,44.45
2016-12-26T03:30:51.005Z,44.74
2016-12-26T03:31:51.340Z,45.12
2016-12-26T03:32:51.047Z,45.03
2016-12-26T03:33:51.069Z,44.65
2016-12-26T03:34:51.400Z,44.74
2016-12-26T03:35:51.106Z,44.84
2016-12-26T03:36:51.138Z,45.03
2016-12-26T03:37:51.466Z,45.03
2016-12-26T03:38:51.167Z,44.84
2016-12-26T03:39:51.189Z,45.31
2016-12-26T03:40:51.525Z,44.65
2016-12-26T03:41:51.226Z,44.84
2016-12-26T03:42:51.565Z,45.03
2016-12-26T03:43:51.586Z,44.93
2016-12-26T03:44:51.291Z,44.93
2016-12-26T03:45:51.309Z,44.74
2016-12-26T03:46:51.642Z,44.93
2016-12-26T03:47:51.349Z,44.84
2016-12-26T03:48:51.369Z,45.12
2016-12-26T03:49:51.390Z,44.93
2016-12-26T03:50:51.723Z,44.74
2016-12-26T03:51:51.431Z,45.03
2016-12-26T03:52:51.451Z,44.84
2016-12-26T03:53:51.785Z,45.12
2016-12-26T03:54:51.806Z,44.55
2016-12-26T03:55:51.827Z,45.12
2016-12-26T03:56:51.846Z,45.22
2016-12-26T03:57:51.579Z,45.31
2016-12-26T03:58:51.573Z,45.51
2016-12-26T03:59:51.592Z,45.31
2016-12-26T04:00:51.612Z,45.31
2016-12-26T04:01:51.951Z,44.93
2016-12-26T04:02:51.967Z,45.03
2016-12-26T04:03:51.673Z,44.84
2016-12-26T04:04:51.693Z,44.74
2016-12-26T04:05:51.713Z,45.12
2016-12-26T04:06:52.265Z,44.84
2016-12-26T04:07:51.759Z,44.93
2016-12-26T04:08:51.773Z,44.45
2016-12-26T04:09:51.792Z,44.45
2016-12-26T04:10:52.128Z,45.03
2016-12-26T04:11:51.839Z,44.26
2016-12-26T04:12:51.856Z,44.45
2016-12-26T04:13:51.873Z,44.45
2016-12-26T04:14:51.907Z,44.45
2016-12-26T04:15:51.918Z,44.55
2016-12-26T04:16:51.935Z,44.93
2016-12-26T04:17:52.283Z,45.12
2016-12-26T04:18:51.974Z,45.12
2016-12-26T04:19:52.310Z,44.84
2016-12-26T04:20:52.018Z,44.93
2016-12-26T04:21:52.355Z,44.74
2016-12-26T04:22:52.370Z,44.26
2016-12-26T04:23:52.078Z,45.03
2016-12-26T04:24:52.411Z,44.74
2016-12-26T04:25:52.115Z,44.55
2016-12-26T04:26:52.447Z,44.36
2016-12-26T04:27:52.158Z,44.74
2016-12-26T04:28:52.177Z,44.74
2016-12-26T04:29:52.512Z,44.55
2016-12-26T04:30:52.532Z,45.22
2016-12-26T04:31:52.552Z,44.74
2016-12-26T04:32:52.572Z,45.22
2016-12-26T04:33:52.276Z,44.93
2016-12-26T04:34:52.609Z,45.03
2016-12-26T04:35:52.315Z,44.74
2016-12-26T04:36:52.364Z,45.12
2016-12-26T04:37:52.357Z,45.51
2016-12-26T04:38:52.695Z,45.22
2016-12-26T04:39:52.715Z,45.31
2016-12-26T04:40:52.414Z,44.93
2016-12-26T04:41:52.752Z,44.74
2016-12-26T04:42:52.457Z,45.22
2016-12-26T04:43:52.474Z,44.93
2016-12-26T04:44:52.497Z,44.74
2016-12-26T04:45:52.516Z,44.93
2016-12-26T04:46:52.850Z,45.03
2016-12-26T04:47:52.555Z,45.03
2016-12-26T04:48:52.893Z,45.22
2016-12-26T04:49:52.911Z,45.22
2016-12-26T04:50:52.931Z,45.22
2016-12-26T04:51:52.634Z,45.22
2016-12-26T04:52:52.969Z,45.12
2016-12-26T04:53:52.991Z,44.74
2016-12-26T04:54:53.008Z,45.12
2016-12-26T04:55:53.029Z,45.22
2016-12-26T04:56:53.080Z,45.41
2016-12-26T04:57:53.069Z,45.12
2016-12-26T04:58:52.775Z,45.22
2016-12-26T04:59:52.796Z,45.22
2016-12-26T05:00:52.828Z,45.41
2016-12-26T05:01:53.149Z,45.41
2016-12-26T05:02:52.854Z,45.12
2016-12-26T05:03:52.874Z,45.12
2016-12-26T05:04:52.893Z,45.12
2016-12-26T05:05:52.912Z,45.22
2016-12-26T05:06:52.936Z,45.41
2016-12-26T05:07:53.268Z,45.51
2016-12-26T05:08:52.986Z,45.7
2016-12-26T05:09:53.308Z,45.31
2016-12-26T05:10:53.325Z,45.51
2016-12-26T05:11:53.346Z,45.31
2016-12-26T05:12:53.367Z,45.31
2016-12-26T05:13:53.384Z,44.93
2016-12-26T05:14:53.131Z,45.41
2016-12-26T05:15:53.112Z,45.89
2016-12-26T05:16:53.132Z,45.31
2016-12-26T05:17:53.149Z,45.89
2016-12-26T05:18:53.171Z,45.31
2016-12-26T05:19:53.191Z,45.31
2016-12-26T05:20:53.212Z,45.31
2016-12-26T05:21:53.547Z,45.51
2016-12-26T05:22:53.575Z,45.51
2016-12-26T05:23:53.271Z,45.6
2016-12-26T05:24:53.290Z,45.7
2016-12-26T05:25:53.308Z,45.58
2016-12-26T05:26:53.332Z,45.6
2016-12-26T05:27:53.348Z,45.51
2016-12-26T05:28:53.682Z,45.98
2016-12-26T05:29:53.388Z,45.7
2016-12-26T05:30:53.409Z,45.31
2016-12-26T05:31:53.747Z,45.98
2016-12-26T05:32:53.762Z,45.51
2016-12-26T05:33:53.480Z,45.7
2016-12-26T05:34:53.486Z,45.6
2016-12-26T05:35:53.507Z,45.22
2016-12-26T05:36:53.527Z,45.12
2016-12-26T05:37:53.546Z,45.41
2016-12-26T05:38:53.568Z,45.41
2016-12-26T05:39:53.586Z,45.41
2016-12-26T05:40:53.607Z,45.22
2016-12-26T05:41:53.627Z,44.93
2016-12-26T05:42:53.645Z,45.31
2016-12-26T05:43:53.982Z,45.22
2016-12-26T05:44:53.687Z,44.93
2016-12-26T05:45:54.018Z,44.84
2016-12-26T05:46:54.041Z,44.93
2016-12-26T05:47:53.744Z,45.03
2016-12-26T05:48:53.767Z,45.03
2016-12-26T05:49:54.101Z,45.03
2016-12-26T05:50:54.120Z,44.93
2016-12-26T05:51:53.827Z,45.22
2016-12-26T05:52:53.846Z,46.08
2016-12-26T05:53:53.866Z,45.22
2016-12-26T05:54:54.202Z,45.31
2016-12-26T05:55:53.906Z,45.7
2016-12-26T05:56:53.925Z,45.41
2016-12-26T05:57:54.258Z,45.41
2016-12-26T05:58:54.278Z,45.51
2016-12-26T05:59:54.299Z,45.41
2016-12-26T06:00:54.321Z,45.22
2016-12-26T06:01:54.025Z,45.79
2016-12-26T06:02:54.043Z,45.79
2016-12-26T06:03:54.378Z,45.98
2016-12-26T06:04:54.399Z,46.17
2016-12-26T06:05:54.419Z,46.17
2016-12-26T06:06:54.134Z,45.89
2016-12-26T06:07:54.143Z,46.17
2016-12-26T06:08:54.477Z,45.79
2016-12-26T06:09:54.190Z,45.79
2016-12-26T06:10:54.519Z,46.27
2016-12-26T06:11:54.544Z,46.17
2016-12-26T06:12:54.579Z,46.27
2016-12-26T06:13:54.578Z,46.37
2016-12-26T06:14:54.281Z,46.37
2016-12-26T06:15:54.301Z,46.08
2016-12-26T06:16:54.638Z,45.79
2016-12-26T06:17:54.343Z,46.27
2016-12-26T06:18:54.362Z,45.98
2016-12-26T06:19:54.694Z,46.17
2016-12-26T06:20:54.720Z,46.17
2016-12-26T06:21:54.737Z,46.27
2016-12-26T06:22:54.452Z,46.37
2016-12-26T06:23:54.780Z,46.37
2016-12-26T06:24:54.798Z,46.46
2016-12-26T06:25:54.501Z,46.46
2016-12-26T06:26:54.523Z,46.75
2016-12-26T06:27:54.857Z,47.03
2016-12-26T06:28:54.876Z,46.66
2016-12-26T06:29:54.582Z,46.75
2016-12-26T06:30:54.611Z,46.66
2016-12-26T06:31:54.622Z,46.66
2016-12-26T06:32:54.678Z,46.75
2016-12-26T06:33:54.986Z,46.27
2016-12-26T06:34:54.996Z,46.27
2016-12-26T06:35:55.017Z,46.08
2016-12-26T06:36:55.035Z,45.98
2016-12-26T06:37:55.054Z,45.98
2016-12-26T06:38:54.762Z,45.98
2016-12-26T06:39:55.097Z,46.27
2016-12-26T06:40:54.799Z,45.79
2016-12-26T06:41:54.820Z,46.37
2016-12-26T06:42:54.838Z,46.08
2016-12-26T06:43:55.176Z,45.79
2016-12-26T06:44:55.203Z,45.79
2016-12-26T06:45:54.901Z,45.6
2016-12-26T06:46:55.235Z,45.51
2016-12-26T06:47:54.940Z,46.17
2016-12-26T06:48:55.273Z,45.89
2016-12-26T06:49:54.980Z,45.41
2016-12-26T06:50:55.314Z,45.98
2016-12-26T06:51:55.332Z,45.79
2016-12-26T06:52:55.039Z,46.08
2016-12-26T06:53:55.058Z,46.27
2016-12-26T06:54:55.082Z,46.08
2016-12-26T06:55:55.417Z,45.79
2016-12-26T06:56:55.442Z,46.08
2016-12-26T06:57:55.138Z,46.08
2016-12-26T06:58:55.474Z,46.66
2016-12-26T06:59:55.498Z,46.17
2016-12-26T07:00:55.514Z,45.89
2016-12-26T07:01:55.535Z,46.17
2016-12-26T07:02:55.555Z,46.27
2016-12-26T07:03:55.574Z,45.89
2016-12-26T07:04:55.595Z,46.08
2016-12-26T07:05:55.304Z,46.17
2016-12-26T07:06:55.634Z,46.17
2016-12-26T07:07:55.340Z,45.89
2016-12-26T07:08:55.676Z,45.41
2016-12-26T07:09:55.693Z,45.41
2016-12-26T07:10:55.398Z,45.7
2016-12-26T07:11:55.735Z,46.08
2016-12-26T07:12:55.442Z,45.89
2016-12-26T07:13:55.774Z,45.31
2016-12-26T07:14:55.478Z,45.79
2016-12-26T07:15:55.520Z,45.31
2016-12-26T07:16:55.531Z,45.31
2016-12-26T07:17:55.538Z,45.51
2016-12-26T07:18:55.556Z,45.7
2016-12-26T07:19:55.577Z,45.31
2016-12-26T07:20:55.601Z,45.51
2016-12-26T07:21:55.617Z,45.31
2016-12-26T07:22:55.958Z,45.22
2016-12-26T07:23:55.991Z,45.22
2016-12-26T07:24:55.690Z,45.22
2016-12-26T07:25:55.699Z,44.93
2016-12-26T07:26:56.051Z,45.03
2016-12-26T07:27:56.055Z,44.93
2016-12-26T07:28:55.758Z,45.12
2016-12-26T07:29:55.779Z,44.93
2016-12-26T07:30:55.801Z,45.03
2016-12-26T07:31:55.818Z,44.84
2016-12-26T07:32:56.154Z,45.22
2016-12-26T07:33:55.861Z,45.62
2016-12-26T07:34:56.212Z,44.84
2016-12-26T07:35:55.899Z,45.31
2016-12-26T07:36:55.919Z,45.51
2016-12-26T07:37:56.253Z,45.41
2016-12-26T07:38:55.971Z,45.31
2016-12-26T07:39:56.294Z,45.12
2016-12-26T07:40:56.000Z,45.51
2016-12-26T07:41:56.025Z,45.41
2016-12-26T07:42:56.040Z,44.93
2016-12-26T07:43:56.374Z,44.76
2016-12-26T07:44:56.080Z,44.93
2016-12-26T07:45:56.100Z,45.03
2016-12-26T07:46:56.120Z,44.86
2016-12-26T07:47:56.456Z,44.45
2016-12-26T07:48:56.160Z,45.22
2016-12-26T07:49:56.190Z,45.41
2016-12-26T07:50:56.513Z,44.57
2016-12-26T07:51:56.219Z,44.19
2016-12-26T07:52:56.559Z,44.67
2016-12-26T07:53:56.576Z,44.76
2016-12-26T07:54:56.281Z,44.17
2016-12-26T07:55:56.617Z,44.45
2016-12-26T07:56:56.322Z,45.22
2016-12-26T07:57:56.656Z,44.93
2016-12-26T07:58:56.676Z,44.93
2016-12-26T07:59:56.382Z,44.45
2016-12-26T08:00:56.718Z,44.84
2016-12-26T08:01:56.419Z,44.84
2016-12-26T08:02:56.755Z,44.84
2016-12-26T08:03:56.779Z,45.22
2016-12-26T08:04:56.480Z,45.22
2016-12-26T08:05:56.819Z,44.84
2016-12-26T08:06:56.838Z,44.45
2016-12-26T08:07:56.542Z,44.65
2016-12-26T08:08:56.584Z,44.17
2016-12-26T08:09:56.900Z,43.69
2016-12-26T08:10:56.916Z,43.98
2016-12-26T08:11:56.622Z,44.17
2016-12-26T08:12:56.642Z,43.88
2016-12-26T08:13:56.981Z,44.26
2016-12-26T08:14:57.001Z,44.45
2016-12-26T08:15:57.021Z,44.26
2016-12-26T08:16:57.058Z,44.26
2016-12-26T08:17:56.753Z,43.79
2016-12-26T08:18:57.081Z,44.19
2016-12-26T08:19:57.118Z,43.88
2016-12-26T08:20:57.120Z,44.29
2016-12-26T08:21:57.142Z,44
2016-12-26T08:22:57.162Z,44.09
2016-12-26T08:23:57.182Z,44
2016-12-26T08:24:56.885Z,43.71
2016-12-26T08:25:56.906Z,43.71
2016-12-26T08:26:56.923Z,44
2016-12-26T08:27:56.946Z,44
2016-12-26T08:28:57.280Z,44.29
2016-12-26T08:29:57.302Z,44
2016-12-26T08:30:57.322Z,44
2016-12-26T08:31:57.027Z,43.71
2016-12-26T08:32:57.362Z,44
2016-12-26T08:33:57.382Z,44.09
2016-12-26T08:34:57.407Z,44.57
2016-12-26T08:35:57.109Z,44.86
2016-12-26T08:36:57.128Z,45.05
2016-12-26T08:37:57.149Z,44.86
2016-12-26T08:38:57.485Z,44.76
2016-12-26T08:39:57.190Z,44.86
2016-12-26T08:40:57.209Z,45.05
2016-12-26T08:41:57.546Z,45.43
2016-12-26T08:42:57.574Z,45.34
2016-12-26T08:43:57.587Z,45.43
2016-12-26T08:44:57.291Z,46.1
2016-12-26T08:45:57.312Z,45.72
2016-12-26T08:46:57.333Z,45.53
2016-12-26T08:47:57.353Z,45.62
2016-12-26T08:48:57.688Z,45.43
2016-12-26T08:49:57.710Z,45.53
2016-12-26T08:50:57.731Z,44.95
2016-12-26T08:51:57.751Z,44.76
2016-12-26T08:52:57.770Z,44.57
2016-12-26T08:53:57.473Z,45.15
2016-12-26T08:54:57.813Z,45.15
2016-12-26T08:55:57.514Z,44.69
2016-12-26T08:56:57.537Z,44.59
2016-12-26T08:57:57.873Z,44.69
2016-12-26T08:58:57.578Z,44.98
2016-12-26T08:59:57.913Z,44.88
2016-12-26T09:00:57.937Z,44.79
2016-12-26T09:01:57.650Z,44.98
2016-12-26T09:02:57.977Z,44.79
2016-12-26T09:03:57.681Z,44.88
2016-12-26T09:04:57.702Z,44.21
2016-12-26T09:05:58.060Z,44.31
2016-12-26T09:06:58.060Z,44.13
2016-12-26T09:07:57.765Z,44.12
2016-12-26T09:08:57.786Z,44.23
2016-12-26T09:09:58.125Z,44.43
2016-12-26T09:10:57.827Z,43.66
2016-12-26T09:11:58.163Z,43.95
2016-12-26T09:12:57.867Z,44.62
2016-12-26T09:13:57.889Z,44.9
2016-12-26T09:14:57.911Z,44.23
2016-12-26T09:15:58.249Z,44.23
2016-12-26T09:16:58.269Z,43.85
2016-12-26T09:17:58.290Z,44.33
2016-12-26T09:19:58.335Z,44.16
2016-12-26T09:20:58.038Z,43.59
2016-12-26T09:21:58.376Z,42.72
2016-12-26T09:22:58.080Z,42.91
2016-12-26T09:23:58.099Z,42.84
2016-12-26T09:24:58.120Z,42.65
2016-12-26T09:25:58.457Z,42.65
2016-12-26T09:26:58.167Z,42.55
2016-12-26T09:27:58.502Z,42.46
2016-12-26T09:28:58.560Z,41.31
2016-12-26T09:29:58.227Z,41.52
2016-12-26T09:30:58.565Z,41.8
2016-12-26T09:31:58.272Z,40.84
2016-12-26T09:32:58.623Z,41.71
2016-12-26T09:33:58.320Z,41.33
2016-12-26T09:34:58.661Z,41.13
2016-12-26T09:35:58.686Z,40.58
2016-12-26T09:36:58.381Z,39.83
2016-12-26T09:37:58.404Z,38.78
2016-12-26T09:38:58.426Z,38.32
2016-12-26T09:39:58.448Z,38.12
2016-12-26T09:40:58.790Z,38.89
2016-12-26T09:41:58.809Z,37.95
2016-12-26T09:42:58.833Z,38.04
2016-12-26T09:43:58.538Z,38.12
2016-12-26T09:44:58.562Z,38.53
2016-12-26T09:45:58.900Z,38.43
2016-12-26T09:46:58.927Z,38.34
2016-12-26T09:47:58.967Z,38.43
2016-12-26T09:48:58.663Z,38.24
2016-12-26T09:49:58.993Z,38.04
2016-12-26T09:50:58.700Z,38.34
2016-12-26T09:51:58.727Z,38.04
2016-12-26T09:52:58.747Z,38.43
2016-12-26T09:53:58.771Z,37.85
2016-12-26T09:54:59.108Z,38.43
2016-12-26T09:55:59.146Z,38.34
2016-12-26T09:56:58.843Z,37.95
2016-12-26T09:57:59.182Z,37.47
2016-12-26T09:58:58.890Z,37.47
2016-12-26T09:59:59.230Z,37.95
2016-12-26T10:00:59.253Z,37.95
2016-12-26T10:01:58.963Z,37.1
2016-12-26T10:02:59.303Z,37.49
2016-12-26T10:03:59.344Z,37.1
2016-12-26T10:04:59.350Z,37.2
2016-12-26T10:05:59.058Z,38.45
2016-12-26T10:06:59.080Z,37.39
2016-12-26T10:07:59.449Z,37.22
2016-12-26T10:08:59.131Z,37.01
2016-12-26T10:09:59.156Z,37.22
2016-12-26T10:10:59.181Z,37.22
2016-12-26T10:11:59.204Z,36.64
2016-12-26T10:12:59.229Z,36.85
2016-12-26T10:13:59.256Z,35.99
2016-12-26T10:14:59.594Z,35.79
2016-12-26T10:15:59.619Z,35.99
2016-12-26T10:16:59.643Z,36.18
2016-12-26T10:17:59.669Z,35.7
2016-12-26T10:18:59.384Z,35.5
2016-12-26T10:19:59.718Z,35.6
2016-12-26T10:20:59.427Z,35.6
2016-12-26T10:21:59.454Z,35.22
2016-12-26T10:22:59.793Z,35.12
2016-12-26T10:23:59.501Z,34.83
2016-12-26T10:24:59.527Z,34.35
2016-12-26T10:25:59.868Z,34.64
2016-12-26T10:26:59.593Z,34.92
2016-12-26T10:27:59.602Z,34.66
2016-12-26T10:28:59.630Z,34.37
2016-12-26T10:29:59.967Z,34.17
2016-12-26T10:30:59.999Z,34.37
2016-12-26T10:31:59.706Z,34.56
2016-12-26T10:33:00.045Z,34.37
2016-12-26T10:34:00.069Z,34.46
2016-12-26T10:34:59.797Z,34
2016-12-26T10:36:00.133Z,34.09
2016-12-26T10:36:59.830Z,33.61
2016-12-26T10:37:59.861Z,33.42
2016-12-26T10:38:59.879Z,32.75
2016-12-26T10:40:00.223Z,32.94
2016-12-26T10:41:00.247Z,32.75
2016-12-26T10:42:00.271Z,32.75
2016-12-26T10:42:59.985Z,32.57
2016-12-26T10:44:00.058Z,32.86
2016-12-26T10:45:00.348Z,32.67
2016-12-26T10:46:00.062Z,32.47
2016-12-26T10:47:00.084Z,31.32
2016-12-26T10:48:00.426Z,30.93
2016-12-26T10:49:00.186Z,31.22
2016-12-26T10:50:00.162Z,31.03
2016-12-26T10:51:00.503Z,31.41
2016-12-26T10:52:00.214Z,31.03
2016-12-26T10:53:00.236Z,31.51
2016-12-26T10:54:00.261Z,30.93
2016-12-26T10:55:00.603Z,31.12
2016-12-26T10:56:00.315Z,31.32
2016-12-26T10:57:00.341Z,31.21
2016-12-26T10:58:00.756Z,31.21
2016-12-26T10:59:00.717Z,31.11
2016-12-26T11:00:00.426Z,31.59
2016-12-26T11:01:00.443Z,30.82
2016-12-26T11:02:00.792Z,31.11
2016-12-26T11:03:00.806Z,31.11
2016-12-26T11:04:00.831Z,31.11
2016-12-26T11:05:00.541Z,31.59
2016-12-26T11:06:00.902Z,30.91
2016-12-26T11:07:00.910Z,31.03
2016-12-26T11:08:00.937Z,30.93
2016-12-26T11:09:00.965Z,30.55
2016-12-26T11:10:00.671Z,30.07
2016-12-26T11:11:01.017Z,30.26
2016-12-26T11:12:01.033Z,29.77
2016-12-26T11:13:01.075Z,29.68
2016-12-26T11:14:00.785Z,29.87
2016-12-26T11:15:00.796Z,30.07
2016-12-26T11:16:01.151Z,29.68
2016-12-26T11:17:01.177Z,29.97
2016-12-26T11:18:01.192Z,29.58
2016-12-26T11:19:00.899Z,29.97
2016-12-26T11:20:00.926Z,29.77
2016-12-26T11:21:00.952Z,29.2
2016-12-26T11:22:01.016Z,29.1
2016-12-26T11:23:01.316Z,28.83
2016-12-26T11:24:01.350Z,29
2016-12-26T11:25:01.368Z,29.1
2016-12-26T11:26:01.077Z,29.68
2016-12-26T11:27:01.430Z,30.08
2016-12-26T11:28:01.126Z,29.69
2016-12-26T11:29:01.470Z,29.89
2016-12-26T11:30:01.182Z,29.21
2016-12-26T11:31:01.211Z,29.21
2016-12-26T11:32:01.229Z,28.45
2016-12-26T11:33:01.572Z,29.03
2016-12-26T11:34:01.279Z,29.03
2016-12-26T11:35:01.622Z,28.84
2016-12-26T11:36:01.334Z,28.45
2016-12-26T11:37:01.358Z,28.18
2016-12-26T11:38:01.716Z,28.07
2016-12-26T11:39:01.410Z,28.45
2016-12-26T11:40:01.440Z,28.26
2016-12-26T11:41:01.463Z,28.55
2016-12-26T11:42:01.805Z,28.74
2016-12-26T11:43:01.839Z,28.63
2016-12-26T11:44:01.539Z,28.63
2016-12-26T11:45:01.566Z,28.92
2016-12-26T11:46:01.959Z,29.11
2016-12-26T11:47:01.626Z,29.41
2016-12-26T11:48:01.641Z,30.07
2016-12-26T11:49:01.669Z,30.07
2016-12-26T11:50:01.694Z,29.97
2016-12-26T11:51:02.036Z,30.35
2016-12-26T11:52:01.755Z,29.97
2016-12-26T11:53:01.785Z,31.03
2016-12-26T11:54:02.118Z,30.34
2016-12-26T11:55:01.818Z,31.11
2016-12-26T11:56:01.846Z,31.21
2016-12-26T11:57:02.186Z,31.01
2016-12-26T11:58:01.900Z,31.21
2016-12-26T11:59:01.921Z,31.21
2016-12-26T12:00:02.262Z,31.87
2016-12-26T12:01:01.971Z,32.06
2016-12-26T12:02:02.034Z,32.06
2016-12-26T12:03:02.338Z,32.25
2016-12-26T12:04:02.367Z,32.43
2016-12-26T12:05:02.390Z,33.29
2016-12-26T12:06:02.095Z,32.9
2016-12-26T12:07:02.445Z,33.29
2016-12-26T12:08:02.146Z,33.29
2016-12-26T12:09:02.486Z,33.39
2016-12-26T12:10:02.528Z,33.47
2016-12-26T12:11:02.534Z,33.75
2016-12-26T12:12:02.566Z,34.05
2016-12-26T12:13:02.583Z,34.23
2016-12-26T12:14:02.293Z,34.62
2016-12-26T12:15:02.320Z,34.99
2016-12-26T12:16:02.655Z,34.99
2016-12-26T12:17:02.378Z,35.08
2016-12-26T12:18:02.419Z,35.66
2016-12-26T12:19:02.408Z,35.38
2016-12-26T12:20:02.446Z,35.64
2016-12-26T12:21:02.470Z,35.93
2016-12-26T12:22:02.492Z,36.03
2016-12-26T12:23:02.510Z,36.32
2016-12-26T12:24:02.530Z,36.6
2016-12-26T12:25:02.882Z,36.8
2016-12-26T12:26:02.580Z,37.18
2016-12-26T12:27:02.921Z,36.78
2016-12-26T12:28:02.942Z,37.16
2016-12-26T12:29:02.649Z,36.97
2016-12-26T12:30:02.672Z,37.64
2016-12-26T12:31:03.008Z,38.22
2016-12-26T12:32:02.719Z,38.32
2016-12-26T12:33:03.053Z,38.41
2016-12-26T12:34:02.865Z,37.91
2016-12-26T12:35:03.188Z,38.12
2016-12-26T12:36:03.211Z,38.2
2016-12-26T12:37:02.834Z,38.59
2016-12-26T12:38:02.856Z,38.87
2016-12-26T12:39:02.980Z,38.96
2016-12-26T12:40:02.907Z,38.87
2016-12-26T12:41:03.241Z,39.06
2016-12-26T12:42:02.954Z,38.96
2016-12-26T12:43:02.970Z,38.68
2016-12-26T12:44:03.093Z,39.35
2016-12-26T12:45:03.018Z,39.73
2016-12-26T12:46:03.041Z,40
2016-12-26T12:47:03.379Z,39.81
2016-12-26T12:48:03.087Z,39.91
2016-12-26T12:49:03.107Z,40.39
2016-12-26T12:50:03.444Z,40.39
2016-12-26T12:51:03.470Z,40.94
2016-12-26T12:52:03.492Z,40.75
2016-12-26T12:53:03.514Z,41.71
2016-12-26T12:54:03.536Z,41.33
2016-12-26T12:55:03.243Z,41.61
2016-12-26T12:56:03.583Z,41.23
2016-12-26T12:57:03.606Z,41.61